createdAt,value
2023-04-01T00:00:59.503Z,10.26
2023-04-01T00:04:03.269Z,10.11
2023-04-01T00:07:05.595Z,10.00
2023-04-01T00:10:09.772Z,10.02
2023-04-01T00:13:12.134Z,10.12
2023-04-01T00:16:21.842Z,9.94
2023-04-01T00:19:24.940Z,10.03
2023-04-01T00:22:27.442Z,10.06
2023-04-01T00:25:30.383Z,10.08
2023-04-01T00:28:35.248Z,10.08
2023-04-01T00:31:37.725Z,10.09
2023-04-01T00:34:40.931Z,10.12
2023-04-01T00:37:43.189Z,10.08
2023-04-01T00:40:47.712Z,9.98
2023-04-01T00:43:52.211Z,9.99
2023-04-01T00:46:54.958Z,9.89
2023-04-01T00:49:57.232Z,9.79
2023-04-01T00:53:01.821Z,9.82
2023-04-01T00:56:10.813Z,9.93
2023-04-01T00:59:17.120Z,10.05
2023-04-01T01:02:20.506Z,9.89
2023-04-01T01:05:48.448Z,9.98
2023-04-01T01:09:16.299Z,9.96
2023-04-01T01:12:42.263Z,9.96
2023-04-01T01:16:05.087Z,9.79
2023-04-01T01:19:32.695Z,9.83
2023-04-01T01:22:43.651Z,9.86
2023-04-01T01:25:53.655Z,9.76
2023-04-01T01:29:01.814Z,9.79
2023-04-01T01:32:10.415Z,9.80
2023-04-01T01:35:47.214Z,9.67
2023-04-01T01:38:55.011Z,9.61
2023-04-01T01:42:01.003Z,9.73
2023-04-01T01:45:06.442Z,9.67
2023-04-01T01:48:10.300Z,9.67
2023-04-01T01:51:12.724Z,9.68
2023-04-01T01:54:18.066Z,9.68
2023-04-01T01:57:29.523Z,9.68
2023-04-01T02:00:36.439Z,9.80
2023-04-01T02:03:40.802Z,9.67
2023-04-01T02:06:53.508Z,9.65
2023-04-01T02:09:56.502Z,9.65
2023-04-01T02:13:02.842Z,9.67
2023-04-01T02:16:14.683Z,9.65
2023-04-01T02:19:23.722Z,9.68
2023-04-01T02:22:30.872Z,9.69
2023-04-01T02:25:36.980Z,9.65
2023-04-01T02:28:42.504Z,9.52
2023-04-01T02:31:45.148Z,9.49
2023-04-01T02:34:49.033Z,9.48
2023-04-01T02:37:54.892Z,9.40
2023-04-01T02:41:00.657Z,9.23
2023-04-01T02:44:04.080Z,9.05
2023-04-01T02:47:06.488Z,8.88
2023-04-01T02:50:09.795Z,8.84
2023-04-01T02:53:12.403Z,8.59
2023-04-01T02:56:14.648Z,8.43
2023-04-01T02:59:16.927Z,8.45
2023-04-01T03:02:19.584Z,8.34
2023-04-01T03:05:22.299Z,8.36
2023-04-01T03:08:24.563Z,8.54
2023-04-01T03:11:27.244Z,8.66
2023-04-01T03:14:29.633Z,8.92
2023-04-01T03:17:32.609Z,8.88
2023-04-01T03:20:35.595Z,8.90
2023-04-01T03:23:37.890Z,9.01
2023-04-01T03:26:40.338Z,8.87
2023-04-01T03:29:42.709Z,8.83
2023-04-01T03:32:45.397Z,8.73
2023-04-01T03:35:47.752Z,8.72
2023-04-01T03:38:53.406Z,8.62
2023-04-01T03:42:02.941Z,8.63
2023-04-01T03:45:06.375Z,8.61
2023-04-01T03:48:08.789Z,8.61
2023-04-01T03:51:11.045Z,8.63
2023-04-01T03:54:13.415Z,8.57
2023-04-01T03:57:15.735Z,8.52
2023-04-01T04:00:18.284Z,8.50
2023-04-01T04:03:27.365Z,8.28
2023-04-01T04:06:30.376Z,8.21
2023-04-01T04:09:33.090Z,8.11
2023-04-01T04:12:35.621Z,8.13
2023-04-01T04:15:37.841Z,8.23
2023-04-01T04:18:42.719Z,8.26
2023-04-01T04:21:45.201Z,8.33
2023-04-01T04:24:47.606Z,8.32
2023-04-01T04:27:50.660Z,8.23
2023-04-01T04:30:53.657Z,8.06
2023-04-01T04:33:56.376Z,7.98
2023-04-01T04:36:58.698Z,7.88
2023-04-01T04:40:06.310Z,7.81
2023-04-01T04:43:12.443Z,7.73
2023-04-01T04:46:14.939Z,7.76
2023-04-01T04:49:17.687Z,7.84
2023-04-01T04:52:20.019Z,7.91
2023-04-01T04:55:22.302Z,8.11
2023-04-01T04:58:34.830Z,8.30
2023-04-01T05:01:37.878Z,8.25
2023-04-01T05:04:40.482Z,8.42
2023-04-01T05:07:45.433Z,8.68
2023-04-01T05:10:48.266Z,9.02
2023-04-01T05:13:51.607Z,9.10
2023-04-01T05:16:55.446Z,9.61
2023-04-01T05:19:58.453Z,9.70
2023-04-01T05:23:02.057Z,9.96
2023-04-01T05:26:11.630Z,10.22
2023-04-01T05:29:14.014Z,10.27
2023-04-01T05:32:17.500Z,10.48
2023-04-01T05:35:19.811Z,10.68
2023-04-01T05:38:22.696Z,10.56
2023-04-01T05:41:25.765Z,10.38
2023-04-01T05:44:28.094Z,10.64
2023-04-01T05:47:50.439Z,10.56
2023-04-01T05:50:53.635Z,10.98
2023-04-01T05:53:55.871Z,11.06
2023-04-01T05:56:58.116Z,10.82
2023-04-01T06:00:00.474Z,10.85
2023-04-01T06:03:03.004Z,11.03
2023-04-01T06:06:16.636Z,11.55
2023-04-01T06:09:26.773Z,12.03
2023-04-01T06:12:43.223Z,12.30
2023-04-01T06:16:14.953Z,12.25
2023-04-01T06:19:39.864Z,12.36
2023-04-01T06:22:57.831Z,12.75
2023-04-01T06:26:17.893Z,13.10
2023-04-01T06:29:39.281Z,13.57
2023-04-01T06:33:23.479Z,13.63
2023-04-01T06:36:38.803Z,13.60
2023-04-01T06:39:53.396Z,13.51
2023-04-01T06:43:02.095Z,13.58
2023-04-01T06:46:50.559Z,13.33
2023-04-01T06:50:36.146Z,13.05
2023-04-01T06:54:10.328Z,13.13
2023-04-01T06:57:56.351Z,13.47
2023-04-01T07:01:03.790Z,13.78
2023-04-01T07:04:17.590Z,14.27
2023-04-01T07:07:38.901Z,14.47
2023-04-01T07:10:44.897Z,14.69
2023-04-01T07:14:26.784Z,14.49
2023-04-01T07:17:33.836Z,15.06
2023-04-01T07:20:39.841Z,15.47
2023-04-01T07:23:46.748Z,15.43
2023-04-01T07:27:12.917Z,15.23
2023-04-01T07:30:22.321Z,15.40
2023-04-01T07:33:45.425Z,15.27
2023-04-01T07:36:55.463Z,15.21
2023-04-01T07:40:13.204Z,15.43
2023-04-01T07:43:51.803Z,16.33
2023-04-01T07:47:27.964Z,16.65
2023-04-01T07:50:33.880Z,16.31
2023-04-01T07:53:50.462Z,16.29
2023-04-01T07:57:03.273Z,15.44
2023-04-01T08:00:50.187Z,15.43
2023-04-01T08:04:24.720Z,15.13
2023-04-01T08:07:37.502Z,15.06
2023-04-01T08:11:02.831Z,15.20
2023-04-01T08:14:26.629Z,15.60
2023-04-01T08:17:59.247Z,16.16
2023-04-01T08:21:37.884Z,16.21
2023-04-01T08:24:50.721Z,16.29
2023-04-01T08:28:17.077Z,16.94
2023-04-01T08:31:41.458Z,16.73
2023-04-01T08:34:49.344Z,16.54
2023-04-01T08:38:22.702Z,15.56
2023-04-01T08:41:34.068Z,15.09
2023-04-01T08:45:28.537Z,14.49
2023-04-01T08:48:48.037Z,14.14
2023-04-01T08:51:59.888Z,14.03
2023-04-01T08:55:45.375Z,14.22
2023-04-01T08:59:11.973Z,14.43
2023-04-01T09:02:28.152Z,14.48
2023-04-01T09:05:46.677Z,14.38
2023-04-01T09:09:07.017Z,14.37
2023-04-01T09:13:08.291Z,14.05
2023-04-01T09:16:36.902Z,14.65
2023-04-01T09:20:01.047Z,15.57
2023-04-01T09:23:06.914Z,15.43
2023-04-01T09:26:29.094Z,14.91
2023-04-01T09:29:44.330Z,14.67
2023-04-01T09:32:58.744Z,14.17
2023-04-01T09:36:06.417Z,14.11
2023-04-01T09:39:38.471Z,13.93
2023-04-01T09:43:04.773Z,13.74
2023-04-01T09:46:51.765Z,13.30
2023-04-01T09:50:13.403Z,13.13
2023-04-01T09:53:29.716Z,13.37
2023-04-01T09:56:44.150Z,13.18
2023-04-01T10:00:08.121Z,13.25
2023-04-01T10:03:40.871Z,13.32
2023-04-01T10:07:37.517Z,13.47
2023-04-01T10:10:52.303Z,13.48
2023-04-01T10:14:07.816Z,13.63
2023-04-01T10:17:34.841Z,13.61
2023-04-01T10:21:16.034Z,13.66
2023-04-01T10:24:31.672Z,13.35
2023-04-01T10:27:41.243Z,13.10
2023-04-01T10:31:33.324Z,12.95
2023-04-01T10:35:03.263Z,13.03
2023-04-01T10:38:36.578Z,13.28
2023-04-01T10:42:03.351Z,13.32
2023-04-01T10:45:49.227Z,13.24
2023-04-01T10:49:16.461Z,13.29
2023-04-01T10:52:35.983Z,13.79
2023-04-01T10:56:10.998Z,13.93
2023-04-01T11:00:25.891Z,14.55
2023-04-01T11:04:12.484Z,14.63
2023-04-01T11:07:36.414Z,14.59
2023-04-01T11:11:14.828Z,14.54
2023-04-01T11:14:49.113Z,14.27
2023-04-01T11:18:34.510Z,14.38
2023-04-01T11:21:42.625Z,14.34
2023-04-01T11:25:22.498Z,13.84
2023-04-01T11:29:05.670Z,13.70
2023-04-01T11:32:29.978Z,13.48
2023-04-01T11:35:53.822Z,13.39
2023-04-01T11:39:16.023Z,13.22
2023-04-01T11:43:33.594Z,12.97
2023-04-01T11:47:22.638Z,12.85
2023-04-01T11:50:54.218Z,12.88
2023-04-01T11:54:20.985Z,13.08
2023-04-01T11:57:41.971Z,13.45
2023-04-01T12:01:08.055Z,13.74
2023-04-01T12:04:29.113Z,14.15
2023-04-01T12:07:45.363Z,13.92
2023-04-01T12:11:06.607Z,14.26
2023-04-01T12:14:33.892Z,14.79
2023-04-01T12:18:16.413Z,14.91
2023-04-01T12:21:38.468Z,14.80
2023-04-01T12:25:02.582Z,14.70
2023-04-01T12:28:33.532Z,14.63
2023-04-01T12:32:08.800Z,14.58
2023-04-01T12:35:38.377Z,14.64
2023-04-01T12:38:49.682Z,15.13
2023-04-01T12:42:04.089Z,15.58
2023-04-01T12:45:30.650Z,15.59
2023-04-01T12:49:07.634Z,15.33
2023-04-01T12:52:36.133Z,15.39
2023-04-01T12:55:44.204Z,15.36
2023-04-01T12:59:05.641Z,15.60
2023-04-01T13:02:15.410Z,15.62
2023-04-01T13:05:48.060Z,15.88
2023-04-01T13:09:08.282Z,15.87
2023-04-01T13:12:32.216Z,15.84
2023-04-01T13:15:37.617Z,15.97
2023-04-01T13:18:58.918Z,15.85
2023-04-01T13:22:07.803Z,16.06
2023-04-01T13:25:37.614Z,16.16
2023-04-01T13:28:57.259Z,16.33
2023-04-01T13:32:40.872Z,16.25
2023-04-01T13:36:08.884Z,16.38
2023-04-01T13:39:37.334Z,15.93
2023-04-01T13:42:46.725Z,15.98
2023-04-01T13:45:49.160Z,16.21
2023-04-01T13:49:25.053Z,16.53
2023-04-01T13:52:32.847Z,16.55
2023-04-01T13:56:16.828Z,16.87
2023-04-01T13:59:27.941Z,16.66
2023-04-01T14:02:36.452Z,16.66
2023-04-01T14:06:13.772Z,16.73
2023-04-01T14:09:31.184Z,16.79
2023-04-01T14:12:53.658Z,16.54
2023-04-01T14:16:25.518Z,16.19
2023-04-01T14:19:52.925Z,16.44
2023-04-01T14:23:20.269Z,16.22
2023-04-01T14:26:43.854Z,16.16
2023-04-01T14:30:01.211Z,15.82
2023-04-01T14:33:29.555Z,15.79
2023-04-01T14:36:56.609Z,15.31
2023-04-01T14:40:24.344Z,15.27
2023-04-01T14:43:54.264Z,15.46
2023-04-01T14:47:15.074Z,15.53
2023-04-01T14:50:23.706Z,15.16
2023-04-01T14:53:39.897Z,15.31
2023-04-01T14:56:45.958Z,15.50
2023-04-01T14:59:51.233Z,15.46
2023-04-01T15:03:04.851Z,14.87
2023-04-01T15:06:49.915Z,14.78
2023-04-01T15:10:09.140Z,14.88
2023-04-01T15:13:50.421Z,15.05
2023-04-01T15:17:00.450Z,15.28
2023-04-01T15:20:26.694Z,15.16
2023-04-01T15:23:38.555Z,15.32
2023-04-01T15:27:05.783Z,15.31
2023-04-01T15:30:37.460Z,15.42
2023-04-01T15:33:48.529Z,15.31
2023-04-01T15:37:20.951Z,15.24
2023-04-01T15:40:46.586Z,15.10
2023-04-01T15:43:53.247Z,15.16
2023-04-01T15:46:58.986Z,15.16
2023-04-01T15:50:40.745Z,15.02
2023-04-01T15:53:48.662Z,15.04
2023-04-01T15:56:55.613Z,15.04
2023-04-01T16:00:09.955Z,15.28
2023-04-01T16:03:24.148Z,15.38
2023-04-01T16:06:48.195Z,15.49
2023-04-01T16:09:58.050Z,15.48
2023-04-01T16:13:20.595Z,15.53
2023-04-01T16:16:55.237Z,15.47
2023-04-01T16:20:14.371Z,15.39
2023-04-01T16:23:38.452Z,15.20
2023-04-01T16:27:04.696Z,15.01
2023-04-01T16:31:04.760Z,14.91
2023-04-01T16:34:28.380Z,14.81
2023-04-01T16:37:37.268Z,14.72
2023-04-01T16:40:48.612Z,14.65
2023-04-01T16:43:56.498Z,14.43
2023-04-01T16:47:08.763Z,14.43
2023-04-01T16:50:26.314Z,14.39
2023-04-01T16:53:48.694Z,14.29
2023-04-01T16:57:17.314Z,14.13
2023-04-01T17:00:39.362Z,13.97
2023-04-01T17:03:46.883Z,13.85
2023-04-01T17:07:00.437Z,13.77
2023-04-01T17:10:38.453Z,13.69
2023-04-01T17:13:59.641Z,13.60
2023-04-01T17:17:20.425Z,13.47
2023-04-01T17:20:41.038Z,13.38
2023-04-01T17:23:55.854Z,13.33
2023-04-01T17:27:08.389Z,13.18
2023-04-01T17:30:34.094Z,13.22
2023-04-01T17:34:06.496Z,13.14
2023-04-01T17:37:29.521Z,12.99
2023-04-01T17:40:36.866Z,12.83
2023-04-01T17:43:51.549Z,12.77
2023-04-01T17:47:12.946Z,12.75
2023-04-01T17:50:17.846Z,12.67
2023-04-01T17:53:34.983Z,12.47
2023-04-01T17:56:53.824Z,12.41
2023-04-01T18:00:12.797Z,12.36
2023-04-01T18:03:43.022Z,12.17
2023-04-01T18:07:08.711Z,12.13
2023-04-01T18:10:32.757Z,11.95
2023-04-01T18:13:46.877Z,11.83
2023-04-01T18:17:14.562Z,11.80
2023-04-01T18:20:52.170Z,11.86
2023-04-01T18:24:15.728Z,11.83
2023-04-01T18:27:46.997Z,11.77
2023-04-01T18:31:11.101Z,11.76
2023-04-01T18:34:28.594Z,11.63
2023-04-01T18:38:13.804Z,11.49
2023-04-01T18:41:37.409Z,11.46
2023-04-01T18:44:49.243Z,11.49
2023-04-01T18:48:09.602Z,11.51
2023-04-01T18:51:18.698Z,11.46
2023-04-01T18:54:28.263Z,11.31
2023-04-01T18:58:12.301Z,11.06
2023-04-01T19:01:17.499Z,11.05
2023-04-01T19:04:24.726Z,10.99
2023-04-01T19:07:48.002Z,10.92
2023-04-01T19:11:23.199Z,10.92
2023-04-01T19:14:40.658Z,10.90
2023-04-01T19:18:19.907Z,10.91
2023-04-01T19:21:48.860Z,10.79
2023-04-01T19:24:51.229Z,10.76
2023-04-01T19:28:02.446Z,10.84
2023-04-01T19:31:21.826Z,10.79
2023-04-01T19:34:54.157Z,10.74
2023-04-01T19:38:16.841Z,10.64
2023-04-01T19:41:36.435Z,10.70
2023-04-01T19:44:59.950Z,10.60
2023-04-01T19:48:19.612Z,10.54
2023-04-01T19:51:36.760Z,10.46
2023-04-01T19:54:50.640Z,10.24
2023-04-01T19:58:06.553Z,10.07
2023-04-01T20:01:16.197Z,9.98
2023-04-01T20:04:27.360Z,9.97
2023-04-01T20:08:19.199Z,10.03
2023-04-01T20:11:46.180Z,10.10
2023-04-01T20:14:52.234Z,10.22
2023-04-01T20:17:59.241Z,10.23
2023-04-01T20:21:32.830Z,10.29
2023-04-01T20:24:47.130Z,10.31
2023-04-01T20:28:11.062Z,10.23
2023-04-01T20:31:32.067Z,10.16
2023-04-01T20:35:00.053Z,10.14
2023-04-01T20:38:13.979Z,10.15
2023-04-01T20:41:23.028Z,10.14
2023-04-01T20:44:46.127Z,10.11
2023-04-01T20:48:06.602Z,10.15
2023-04-01T20:51:25.758Z,10.01
2023-04-01T20:54:44.986Z,9.92
2023-04-01T20:58:11.581Z,9.87
2023-04-01T21:01:23.501Z,9.88
2023-04-01T21:04:29.632Z,9.96
2023-04-01T21:07:53.367Z,10.24
2023-04-01T21:11:02.548Z,10.17
2023-04-01T21:14:10.757Z,10.05
2023-04-01T21:17:48.364Z,9.82
2023-04-01T21:20:58.324Z,9.65
2023-04-01T21:24:09.715Z,9.47
2023-04-01T21:27:30.513Z,9.52
2023-04-01T21:31:11.346Z,9.35
2023-04-01T21:34:19.663Z,9.39
2023-04-01T21:37:54.859Z,9.45
2023-04-01T21:40:57.141Z,9.49
2023-04-01T21:44:23.295Z,9.54
2023-04-01T21:47:43.968Z,9.46
2023-04-01T21:50:54.955Z,9.60
2023-04-01T21:54:09.060Z,9.67
2023-04-01T21:57:29.045Z,9.53
2023-04-01T22:00:55.233Z,9.44
2023-04-01T22:04:43.867Z,9.42
2023-04-01T22:07:54.996Z,9.48
2023-04-01T22:11:33.576Z,9.49
2023-04-01T22:14:50.896Z,9.47
2023-04-01T22:18:04.365Z,9.43
2023-04-01T22:21:10.879Z,9.42
2023-04-01T22:24:22.977Z,9.43
2023-04-01T22:27:58.497Z,9.36
2023-04-01T22:31:02.575Z,9.62
2023-04-01T22:34:19.126Z,9.56
2023-04-01T22:37:26.082Z,9.61
2023-04-01T22:40:31.170Z,9.66
2023-04-01T22:43:42.743Z,9.57
2023-04-01T22:47:00.469Z,9.51
2023-04-01T22:50:23.076Z,9.40
2023-04-01T22:53:47.472Z,9.44
2023-04-01T22:56:56.148Z,9.45
2023-04-01T23:00:20.127Z,9.28
2023-04-01T23:03:34.154Z,9.26
2023-04-01T23:06:42.435Z,9.11
2023-04-01T23:09:45.116Z,9.22
2023-04-01T23:12:50.171Z,9.11
2023-04-01T23:15:54.960Z,9.05
2023-04-01T23:19:02.794Z,9.12
2023-04-01T23:22:26.370Z,9.12
2023-04-01T23:25:47.341Z,9.28
2023-04-01T23:28:51.803Z,9.15
2023-04-01T23:32:05.382Z,9.02
2023-04-01T23:35:18.004Z,8.94
2023-04-01T23:38:23.411Z,8.85
2023-04-01T23:41:32.513Z,8.99
2023-04-01T23:44:37.216Z,8.87
2023-04-01T23:47:41.865Z,8.91
2023-04-01T23:50:46.238Z,8.90
2023-04-01T23:54:11.749Z,8.78
2023-04-01T23:57:19.069Z,8.84
